sensor_id;sensor_type;location;lat;lon;timestamp;temperature;humidity
15937;DHT22;9163;48.818;8.976;2023-04-09T00:01:41;4.70;99.90
15937;DHT22;9163;48.818;8.976;2023-04-09T00:04:08;4.70;99.90
15937;DHT22;9163;48.818;8.976;2023-04-09T00:06:35;4.70;99.90
15937;DHT22;9163;48.818;8.976;2023-04-09T00:09:03;4.60;99.90
15937;DHT22;9163;48.818;8.976;2023-04-09T00:11:31;4.60;99.90
15937;DHT22;9163;48.818;8.976;2023-04-09T00:13:58;4.60;99.90
15937;DHT22;9163;48.818;8.976;2023-04-09T00:16:27;4.60;99.90
15937;DHT22;9163;48.818;8.976;2023-04-09T00:18:54;4.70;99.90
15937;DHT22;9163;48.818;8.976;2023-04-09T00:21:21;4.70;99.90
15937;DHT22;9163;48.818;8.976;2023-04-09T00:23:49;4.70;99.90
15937;DHT22;9163;48.818;8.976;2023-04-09T00:26:16;4.70;99.90
15937;DHT22;9163;48.818;8.976;2023-04-09T00:28:43;4.70;99.90
15937;DHT22;9163;48.818;8.976;2023-04-09T00:31:10;4.70;99.90
15937;DHT22;9163;48.818;8.976;2023-04-09T00:33:39;4.70;99.90
15937;DHT22;9163;48.818;8.976;2023-04-09T00:36:07;4.70;99.90
15937;DHT22;9163;48.818;8.976;2023-04-09T00:38:34;4.70;99.90
15937;DHT22;9163;48.818;8.976;2023-04-09T00:41:01;4.70;99.90
15937;DHT22;9163;48.818;8.976;2023-04-09T00:43:28;4.70;99.90
15937;DHT22;9163;48.818;8.976;2023-04-09T00:45:56;4.70;99.90
15937;DHT22;9163;48.818;8.976;2023-04-09T00:48:24;4.70;99.90
15937;DHT22;9163;48.818;8.976;2023-04-09T00:50:53;4.60;99.90
15937;DHT22;9163;48.818;8.976;2023-04-09T00:53:20;4.50;99.90
15937;DHT22;9163;48.818;8.976;2023-04-09T00:55:47;4.50;99.90
15937;DHT22;9163;48.818;8.976;2023-04-09T00:58:14;4.50;99.90
15937;DHT22;9163;48.818;8.976;2023-04-09T01:00:42;4.50;99.90
15937;DHT22;9163;48.818;8.976;2023-04-09T01:03:09;4.40;99.90
15937;DHT22;9163;48.818;8.976;2023-04-09T01:05:42;4.30;99.90
15937;DHT22;9163;48.818;8.976;2023-04-09T01:08:18;4.30;99.90
15937;DHT22;9163;48.818;8.976;2023-04-09T01:10:54;4.30;99.90
15937;DHT22;9163;48.818;8.976;2023-04-09T01:13:29;4.30;99.90
15937;DHT22;9163;48.818;8.976;2023-04-09T01:16:00;4.30;99.90
15937;DHT22;9163;48.818;8.976;2023-04-09T01:18:30;4.30;99.90
15937;DHT22;9163;48.818;8.976;2023-04-09T01:21:04;4.30;99.90
15937;DHT22;9163;48.818;8.976;2023-04-09T01:23:44;4.40;99.90
15937;DHT22;9163;48.818;8.976;2023-04-09T01:26:17;4.40;99.90
15937;DHT22;9163;48.818;8.976;2023-04-09T01:28:52;4.40;99.90
15937;DHT22;9163;48.818;8.976;2023-04-09T01:31:24;4.40;99.90
15937;DHT22;9163;48.818;8.976;2023-04-09T01:33:52;4.40;99.90
15937;DHT22;9163;48.818;8.976;2023-04-09T01:36:21;4.40;99.90
15937;DHT22;9163;48.818;8.976;2023-04-09T01:38:50;4.40;99.90
15937;DHT22;9163;48.818;8.976;2023-04-09T01:41:20;4.50;99.90
15937;DHT22;9163;48.818;8.976;2023-04-09T01:43:50;4.50;99.90
15937;DHT22;9163;48.818;8.976;2023-04-09T01:46:18;4.60;99.90
15937;DHT22;9163;48.818;8.976;2023-04-09T01:48:46;4.50;99.90
15937;DHT22;9163;48.818;8.976;2023-04-09T01:51:14;4.60;99.90
15937;DHT22;9163;48.818;8.976;2023-04-09T01:53:42;4.60;99.90
15937;DHT22;9163;48.818;8.976;2023-04-09T01:56:09;4.60;99.90
15937;DHT22;9163;48.818;8.976;2023-04-09T01:58:37;4.70;99.90
15937;DHT22;9163;48.818;8.976;2023-04-09T02:01:11;4.70;99.90
15937;DHT22;9163;48.818;8.976;2023-04-09T02:03:45;4.70;99.90
15937;DHT22;9163;48.818;8.976;2023-04-09T02:06:14;4.70;99.90
15937;DHT22;9163;48.818;8.976;2023-04-09T02:08:44;4.70;99.90
15937;DHT22;9163;48.818;8.976;2023-04-09T02:11:14;4.70;99.90
15937;DHT22;9163;48.818;8.976;2023-04-09T02:13:42;4.80;99.90
15937;DHT22;9163;48.818;8.976;2023-04-09T02:16:12;4.80;99.90
15937;DHT22;9163;48.818;8.976;2023-04-09T02:18:41;4.80;99.90
15937;DHT22;9163;48.818;8.976;2023-04-09T02:21:09;4.80;99.90
15937;DHT22;9163;48.818;8.976;2023-04-09T02:23:38;4.80;99.90
15937;DHT22;9163;48.818;8.976;2023-04-09T02:26:05;4.70;99.90
15937;DHT22;9163;48.818;8.976;2023-04-09T02:28:32;4.80;99.90
15937;DHT22;9163;48.818;8.976;2023-04-09T02:31:00;4.80;99.90
15937;DHT22;9163;48.818;8.976;2023-04-09T02:33:28;4.80;99.90
15937;DHT22;9163;48.818;8.976;2023-04-09T02:35:55;4.90;99.90
15937;DHT22;9163;48.818;8.976;2023-04-09T02:38:23;4.80;99.90
15937;DHT22;9163;48.818;8.976;2023-04-09T02:40:50;4.80;99.90
15937;DHT22;9163;48.818;8.976;2023-04-09T02:43:17;4.80;99.90
15937;DHT22;9163;48.818;8.976;2023-04-09T02:45:45;4.80;99.90
15937;DHT22;9163;48.818;8.976;2023-04-09T02:48:12;4.80;99.90
15937;DHT22;9163;48.818;8.976;2023-04-09T02:50:40;4.80;99.90
15937;DHT22;9163;48.818;8.976;2023-04-09T02:53:08;4.80;99.90
15937;DHT22;9163;48.818;8.976;2023-04-09T02:55:35;4.80;99.90
15937;DHT22;9163;48.818;8.976;2023-04-09T02:58:02;4.80;99.90
15937;DHT22;9163;48.818;8.976;2023-04-09T03:00:29;4.80;99.90
15937;DHT22;9163;48.818;8.976;2023-04-09T03:02:56;4.80;99.90
15937;DHT22;9163;48.818;8.976;2023-04-09T03:05:24;4.80;99.90
15937;DHT22;9163;48.818;8.976;2023-04-09T03:07:52;4.80;99.90
15937;DHT22;9163;48.818;8.976;2023-04-09T03:10:20;4.90;99.90
15937;DHT22;9163;48.818;8.976;2023-04-09T03:12:47;4.90;99.90
15937;DHT22;9163;48.818;8.976;2023-04-09T03:15:14;4.80;99.90
15937;DHT22;9163;48.818;8.976;2023-04-09T03:17:41;4.80;99.90
15937;DHT22;9163;48.818;8.976;2023-04-09T03:20:09;4.80;99.90
15937;DHT22;9163;48.818;8.976;2023-04-09T03:22:36;4.80;99.90
15937;DHT22;9163;48.818;8.976;2023-04-09T03:25:06;4.70;99.90
15937;DHT22;9163;48.818;8.976;2023-04-09T03:27:34;4.70;99.90
15937;DHT22;9163;48.818;8.976;2023-04-09T03:30:01;4.70;99.90
15937;DHT22;9163;48.818;8.976;2023-04-09T03:32:28;4.70;99.90
15937;DHT22;9163;48.818;8.976;2023-04-09T03:34:55;4.60;99.90
15937;DHT22;9163;48.818;8.976;2023-04-09T03:37:22;4.60;99.90
15937;DHT22;9163;48.818;8.976;2023-04-09T03:39:50;4.50;99.90
15937;DHT22;9163;48.818;8.976;2023-04-09T03:42:18;4.40;99.90
15937;DHT22;9163;48.818;8.976;2023-04-09T03:44:46;4.50;99.90
15937;DHT22;9163;48.818;8.976;2023-04-09T03:47:16;4.50;99.90
15937;DHT22;9163;48.818;8.976;2023-04-09T03:49:43;4.40;99.90
15937;DHT22;9163;48.818;8.976;2023-04-09T03:52:10;4.30;99.90
15937;DHT22;9163;48.818;8.976;2023-04-09T03:54:37;4.30;99.90
15937;DHT22;9163;48.818;8.976;2023-04-09T03:57:04;4.20;99.90
15937;DHT22;9163;48.818;8.976;2023-04-09T03:59:33;4.10;99.90
15937;DHT22;9163;48.818;8.976;2023-04-09T04:02:00;4.10;99.90
15937;DHT22;9163;48.818;8.976;2023-04-09T04:04:28;4.00;99.90
15937;DHT22;9163;48.818;8.976;2023-04-09T04:06:55;4.00;99.90
15937;DHT22;9163;48.818;8.976;2023-04-09T04:09:22;4.00;99.90
15937;DHT22;9163;48.818;8.976;2023-04-09T04:11:50;3.90;99.90
15937;DHT22;9163;48.818;8.976;2023-04-09T04:14:17;3.90;99.90
15937;DHT22;9163;48.818;8.976;2023-04-09T04:16:45;3.90;99.90
15937;DHT22;9163;48.818;8.976;2023-04-09T04:19:12;3.80;99.90
15937;DHT22;9163;48.818;8.976;2023-04-09T04:21:40;3.80;99.90
15937;DHT22;9163;48.818;8.976;2023-04-09T04:24:07;3.80;99.90
15937;DHT22;9163;48.818;8.976;2023-04-09T04:26:34;3.80;99.90
15937;DHT22;9163;48.818;8.976;2023-04-09T04:29:02;3.90;99.90
15937;DHT22;9163;48.818;8.976;2023-04-09T04:31:29;3.80;99.90
15937;DHT22;9163;48.818;8.976;2023-04-09T04:33:57;3.90;99.90
15937;DHT22;9163;48.818;8.976;2023-04-09T04:36:25;4.00;99.90
15937;DHT22;9163;48.818;8.976;2023-04-09T04:38:52;4.00;99.90
15937;DHT22;9163;48.818;8.976;2023-04-09T04:41:19;4.00;99.90
15937;DHT22;9163;48.818;8.976;2023-04-09T04:43:47;4.10;99.90
15937;DHT22;9163;48.818;8.976;2023-04-09T04:46:14;4.10;99.90
15937;DHT22;9163;48.818;8.976;2023-04-09T04:48:41;4.10;99.90
15937;DHT22;9163;48.818;8.976;2023-04-09T04:51:10;4.10;99.90
15937;DHT22;9163;48.818;8.976;2023-04-09T04:53:37;4.00;99.90
15937;DHT22;9163;48.818;8.976;2023-04-09T04:56:04;4.00;99.90
15937;DHT22;9163;48.818;8.976;2023-04-09T04:58:32;4.00;99.90
15937;DHT22;9163;48.818;8.976;2023-04-09T05:00:59;4.00;99.90
15937;DHT22;9163;48.818;8.976;2023-04-09T05:03:26;4.00;99.90
15937;DHT22;9163;48.818;8.976;2023-04-09T05:05:53;4.10;99.90
15937;DHT22;9163;48.818;8.976;2023-04-09T05:08:22;4.00;99.90
15937;DHT22;9163;48.818;8.976;2023-04-09T05:10:49;4.00;99.90
15937;DHT22;9163;48.818;8.976;2023-04-09T05:13:20;4.00;99.90
15937;DHT22;9163;48.818;8.976;2023-04-09T05:15:48;4.00;99.90
15937;DHT22;9163;48.818;8.976;2023-04-09T05:18:15;4.00;99.90
15937;DHT22;9163;48.818;8.976;2023-04-09T05:20:43;4.00;99.90
15937;DHT22;9163;48.818;8.976;2023-04-09T05:23:10;4.00;99.90
15937;DHT22;9163;48.818;8.976;2023-04-09T05:25:38;4.00;99.90
15937;DHT22;9163;48.818;8.976;2023-04-09T05:28:06;4.10;99.90
15937;DHT22;9163;48.818;8.976;2023-04-09T05:30:33;4.10;99.90
15937;DHT22;9163;48.818;8.976;2023-04-09T05:33:00;4.20;99.90
15937;DHT22;9163;48.818;8.976;2023-04-09T05:35:27;4.10;99.90
15937;DHT22;9163;48.818;8.976;2023-04-09T05:37:54;4.20;99.90
15937;DHT22;9163;48.818;8.976;2023-04-09T05:40:22;4.20;99.90
15937;DHT22;9163;48.818;8.976;2023-04-09T05:42:50;4.30;99.90
15937;DHT22;9163;48.818;8.976;2023-04-09T05:45:17;4.40;99.90
15937;DHT22;9163;48.818;8.976;2023-04-09T05:47:45;4.50;99.90
15937;DHT22;9163;48.818;8.976;2023-04-09T05:50:12;4.50;99.90
15937;DHT22;9163;48.818;8.976;2023-04-09T05:52:39;4.60;99.90
15937;DHT22;9163;48.818;8.976;2023-04-09T05:55:07;4.60;99.90
15937;DHT22;9163;48.818;8.976;2023-04-09T05:57:35;4.70;99.90
15937;DHT22;9163;48.818;8.976;2023-04-09T06:00:05;4.70;99.90
15937;DHT22;9163;48.818;8.976;2023-04-09T06:02:33;4.80;99.90
15937;DHT22;9163;48.818;8.976;2023-04-09T06:05:00;4.90;99.90
15937;DHT22;9163;48.818;8.976;2023-04-09T06:07:27;5.00;99.90
15937;DHT22;9163;48.818;8.976;2023-04-09T06:09:55;5.10;99.90
15937;DHT22;9163;48.818;8.976;2023-04-09T06:12:22;5.20;99.90
15937;DHT22;9163;48.818;8.976;2023-04-09T06:14:49;5.30;99.90
15937;DHT22;9163;48.818;8.976;2023-04-09T06:17:18;5.40;99.90
15937;DHT22;9163;48.818;8.976;2023-04-09T06:19:45;5.50;99.90
15937;DHT22;9163;48.818;8.976;2023-04-09T06:22:12;5.60;99.90
15937;DHT22;9163;48.818;8.976;2023-04-09T06:24:39;5.70;99.90
15937;DHT22;9163;48.818;8.976;2023-04-09T06:27:06;5.80;99.90
15937;DHT22;9163;48.818;8.976;2023-04-09T06:29:34;6.00;99.90
15937;DHT22;9163;48.818;8.976;2023-04-09T06:32:01;6.20;99.90
15937;DHT22;9163;48.818;8.976;2023-04-09T06:34:30;6.40;99.90
15937;DHT22;9163;48.818;8.976;2023-04-09T06:36:57;6.60;99.90
15937;DHT22;9163;48.818;8.976;2023-04-09T06:39:24;6.70;99.90
15937;DHT22;9163;48.818;8.976;2023-04-09T06:41:51;6.90;99.90
15937;DHT22;9163;48.818;8.976;2023-04-09T06:44:18;7.20;99.90
15937;DHT22;9163;48.818;8.976;2023-04-09T06:46:46;7.40;99.90
15937;DHT22;9163;48.818;8.976;2023-04-09T06:49:13;7.60;99.90
15937;DHT22;9163;48.818;8.976;2023-04-09T06:51:42;7.80;99.90
15937;DHT22;9163;48.818;8.976;2023-04-09T06:54:09;8.10;99.90
15937;DHT22;9163;48.818;8.976;2023-04-09T06:56:36;8.30;99.90
15937;DHT22;9163;48.818;8.976;2023-04-09T06:59:03;8.50;99.90
15937;DHT22;9163;48.818;8.976;2023-04-09T07:01:31;8.60;99.90
15937;DHT22;9163;48.818;8.976;2023-04-09T07:04:00;8.70;99.90
15937;DHT22;9163;48.818;8.976;2023-04-09T07:06:27;9.00;99.90
15937;DHT22;9163;48.818;8.976;2023-04-09T07:08:56;9.20;99.90
15937;DHT22;9163;48.818;8.976;2023-04-09T07:11:23;9.40;99.90
15937;DHT22;9163;48.818;8.976;2023-04-09T07:13:51;9.60;99.90
15937;DHT22;9163;48.818;8.976;2023-04-09T07:16:18;9.80;99.90
15937;DHT22;9163;48.818;8.976;2023-04-09T07:18:46;10.10;99.90
15937;DHT22;9163;48.818;8.976;2023-04-09T07:21:13;10.40;99.90
15937;DHT22;9163;48.818;8.976;2023-04-09T07:23:41;10.50;99.90
15937;DHT22;9163;48.818;8.976;2023-04-09T07:26:09;10.60;99.90
15937;DHT22;9163;48.818;8.976;2023-04-09T07:28:37;10.50;97.90
15937;DHT22;9163;48.818;8.976;2023-04-09T07:31:04;10.70;99.90
15937;DHT22;9163;48.818;8.976;2023-04-09T07:33:32;10.80;99.90
15937;DHT22;9163;48.818;8.976;2023-04-09T07:35:59;10.70;94.10
15937;DHT22;9163;48.818;8.976;2023-04-09T07:38:28;10.70;76.00
15937;DHT22;9163;48.818;8.976;2023-04-09T07:40:55;10.90;73.90
15937;DHT22;9163;48.818;8.976;2023-04-09T07:43:24;11.30;76.80
15937;DHT22;9163;48.818;8.976;2023-04-09T07:45:51;11.50;62.20
15937;DHT22;9163;48.818;8.976;2023-04-09T07:48:19;11.60;86.90
15937;DHT22;9163;48.818;8.976;2023-04-09T07:50:46;11.80;11.40
15937;DHT22;9163;48.818;8.976;2023-04-09T07:53:13;11.80;13.70
15937;DHT22;9163;48.818;8.976;2023-04-09T07:55:41;11.70;12.80
15937;DHT22;9163;48.818;8.976;2023-04-09T07:58:08;12.00;13.90
15937;DHT22;9163;48.818;8.976;2023-04-09T08:00:37;12.20;8.50
15937;DHT22;9163;48.818;8.976;2023-04-09T08:03:04;12.70;3.50
15937;DHT22;9163;48.818;8.976;2023-04-09T08:05:31;13.00;19.40
15937;DHT22;9163;48.818;8.976;2023-04-09T08:07:59;13.20;1.00
15937;DHT22;9163;48.818;8.976;2023-04-09T08:10:26;13.00;1.00
15937;DHT22;9163;48.818;8.976;2023-04-09T08:12:53;13.00;1.00
15937;DHT22;9163;48.818;8.976;2023-04-09T08:15:20;13.30;1.00
15937;DHT22;9163;48.818;8.976;2023-04-09T08:17:49;13.00;1.00
15937;DHT22;9163;48.818;8.976;2023-04-09T08:20:16;12.80;1.00
15937;DHT22;9163;48.818;8.976;2023-04-09T08:22:44;12.60;1.00
15937;DHT22;9163;48.818;8.976;2023-04-09T08:25:12;12.50;1.00
15937;DHT22;9163;48.818;8.976;2023-04-09T08:27:40;12.40;1.00
15937;DHT22;9163;48.818;8.976;2023-04-09T08:30:08;12.30;1.30
15937;DHT22;9163;48.818;8.976;2023-04-09T08:32:36;12.20;1.00
15937;DHT22;9163;48.818;8.976;2023-04-09T08:35:05;12.00;1.00
15937;DHT22;9163;48.818;8.976;2023-04-09T08:37:34;12.30;1.00
15937;DHT22;9163;48.818;8.976;2023-04-09T08:40:01;13.10;1.00
15937;DHT22;9163;48.818;8.976;2023-04-09T08:42:30;13.70;1.00
15937;DHT22;9163;48.818;8.976;2023-04-09T08:45:02;14.10;1.00
15937;DHT22;9163;48.818;8.976;2023-04-09T08:47:31;14.40;1.00
15937;DHT22;9163;48.818;8.976;2023-04-09T08:49:58;14.80;1.00
15937;DHT22;9163;48.818;8.976;2023-04-09T08:52:31;15.30;1.00
15937;DHT22;9163;48.818;8.976;2023-04-09T08:54:59;15.60;1.00
15937;DHT22;9163;48.818;8.976;2023-04-09T08:57:27;15.40;1.00
15937;DHT22;9163;48.818;8.976;2023-04-09T08:59:54;14.70;1.00
15937;DHT22;9163;48.818;8.976;2023-04-09T09:02:21;14.20;1.00
15937;DHT22;9163;48.818;8.976;2023-04-09T09:04:49;14.20;1.00
15937;DHT22;9163;48.818;8.976;2023-04-09T09:07:18;13.90;1.00
15937;DHT22;9163;48.818;8.976;2023-04-09T09:09:54;13.70;1.00
15937;DHT22;9163;48.818;8.976;2023-04-09T09:12:35;13.60;1.00
15937;DHT22;9163;48.818;8.976;2023-04-09T09:15:05;13.70;1.00
15937;DHT22;9163;48.818;8.976;2023-04-09T09:17:33;13.70;1.00
15937;DHT22;9163;48.818;8.976;2023-04-09T09:20:19;13.20;1.00
15937;DHT22;9163;48.818;8.976;2023-04-09T09:22:50;12.50;1.00
15937;DHT22;9163;48.818;8.976;2023-04-09T09:25:19;12.60;1.00
15937;DHT22;9163;48.818;8.976;2023-04-09T09:27:48;12.90;1.00
15937;DHT22;9163;48.818;8.976;2023-04-09T09:30:22;13.20;1.00
15937;DHT22;9163;48.818;8.976;2023-04-09T09:32:51;13.40;1.00
15937;DHT22;9163;48.818;8.976;2023-04-09T09:35:19;13.50;1.00
15937;DHT22;9163;48.818;8.976;2023-04-09T09:37:47;14.20;1.00
15937;DHT22;9163;48.818;8.976;2023-04-09T09:40:27;14.00;1.00
15937;DHT22;9163;48.818;8.976;2023-04-09T09:42:55;13.70;1.00
15937;DHT22;9163;48.818;8.976;2023-04-09T09:45:23;13.60;1.00
15937;DHT22;9163;48.818;8.976;2023-04-09T09:47:51;13.70;1.00
15937;DHT22;9163;48.818;8.976;2023-04-09T09:50:23;13.60;1.00
15937;DHT22;9163;48.818;8.976;2023-04-09T09:53:00;13.50;1.00
15937;DHT22;9163;48.818;8.976;2023-04-09T09:55:31;13.40;1.00
15937;DHT22;9163;48.818;8.976;2023-04-09T09:58:01;13.30;1.00
15937;DHT22;9163;48.818;8.976;2023-04-09T10:00:31;13.00;1.00
15937;DHT22;9163;48.818;8.976;2023-04-09T10:03:03;12.70;1.00
15937;DHT22;9163;48.818;8.976;2023-04-09T10:05:32;12.70;1.00
15937;DHT22;9163;48.818;8.976;2023-04-09T10:08:01;12.60;1.00
15937;DHT22;9163;48.818;8.976;2023-04-09T10:10:31;12.50;1.00
15937;DHT22;9163;48.818;8.976;2023-04-09T10:12:58;12.50;1.00
15937;DHT22;9163;48.818;8.976;2023-04-09T10:15:27;12.40;1.00
15937;DHT22;9163;48.818;8.976;2023-04-09T10:17:57;12.30;1.00
15937;DHT22;9163;48.818;8.976;2023-04-09T10:20:28;12.20;1.00
15937;DHT22;9163;48.818;8.976;2023-04-09T10:23:02;12.20;1.00
15937;DHT22;9163;48.818;8.976;2023-04-09T10:25:31;12.30;1.00
15937;DHT22;9163;48.818;8.976;2023-04-09T10:27:59;12.50;1.00
15937;DHT22;9163;48.818;8.976;2023-04-09T10:30:33;12.70;1.00
15937;DHT22;9163;48.818;8.976;2023-04-09T10:33:09;13.10;1.00
15937;DHT22;9163;48.818;8.976;2023-04-09T10:35:36;13.80;1.00
15937;DHT22;9163;48.818;8.976;2023-04-09T10:38:06;14.20;1.00
15937;DHT22;9163;48.818;8.976;2023-04-09T10:40:40;14.10;1.00
15937;DHT22;9163;48.818;8.976;2023-04-09T10:43:08;14.30;1.00
15937;DHT22;9163;48.818;8.976;2023-04-09T10:45:39;14.20;1.00
15937;DHT22;9163;48.818;8.976;2023-04-09T10:48:11;13.10;1.00
15937;DHT22;9163;48.818;8.976;2023-04-09T10:50:41;12.80;1.00
15937;DHT22;9163;48.818;8.976;2023-04-09T10:53:20;12.40;1.00
15937;DHT22;9163;48.818;8.976;2023-04-09T10:55:52;12.40;1.00
15937;DHT22;9163;48.818;8.976;2023-04-09T10:58:19;12.50;1.00
15937;DHT22;9163;48.818;8.976;2023-04-09T11:00:48;12.70;1.00
15937;DHT22;9163;48.818;8.976;2023-04-09T11:03:23;13.30;1.00
15937;DHT22;9163;48.818;8.976;2023-04-09T11:05:56;13.60;1.00
15937;DHT22;9163;48.818;8.976;2023-04-09T11:08:27;13.00;1.00
15937;DHT22;9163;48.818;8.976;2023-04-09T11:10:56;12.90;1.00
15937;DHT22;9163;48.818;8.976;2023-04-09T11:13:26;12.70;1.00
15937;DHT22;9163;48.818;8.976;2023-04-09T11:15:54;13.50;1.00
15937;DHT22;9163;48.818;8.976;2023-04-09T11:18:23;14.80;1.00
15937;DHT22;9163;48.818;8.976;2023-04-09T11:20:53;14.50;33.80
15937;DHT22;9163;48.818;8.976;2023-04-09T11:23:21;14.10;35.80
15937;DHT22;9163;48.818;8.976;2023-04-09T11:25:50;14.10;32.40
15937;DHT22;9163;48.818;8.976;2023-04-09T11:28:21;13.70;36.30
15937;DHT22;9163;48.818;8.976;2023-04-09T11:30:49;13.60;28.10
15937;DHT22;9163;48.818;8.976;2023-04-09T11:33:17;13.60;26.30
15937;DHT22;9163;48.818;8.976;2023-04-09T11:35:44;13.30;26.80
15937;DHT22;9163;48.818;8.976;2023-04-09T11:38:11;13.10;30.70
15937;DHT22;9163;48.818;8.976;2023-04-09T11:40:41;13.50;32.10
15937;DHT22;9163;48.818;8.976;2023-04-09T11:43:13;13.80;23.90
15937;DHT22;9163;48.818;8.976;2023-04-09T11:45:43;13.30;40.40
15937;DHT22;9163;48.818;8.976;2023-04-09T11:48:13;13.60;43.80
15937;DHT22;9163;48.818;8.976;2023-04-09T11:50:40;14.10;44.70
15937;DHT22;9163;48.818;8.976;2023-04-09T11:53:18;13.90;41.40
15937;DHT22;9163;48.818;8.976;2023-04-09T11:55:50;13.70;54.40
15937;DHT22;9163;48.818;8.976;2023-04-09T11:58:20;13.80;48.70
15937;DHT22;9163;48.818;8.976;2023-04-09T12:00:51;14.10;57.10
15937;DHT22;9163;48.818;8.976;2023-04-09T12:03:26;15.00;54.90
15937;DHT22;9163;48.818;8.976;2023-04-09T12:05:54;15.90;57.70
15937;DHT22;9163;48.818;8.976;2023-04-09T12:08:22;15.80;59.10
15937;DHT22;9163;48.818;8.976;2023-04-09T12:10:49;15.40;73.90
15937;DHT22;9163;48.818;8.976;2023-04-09T12:13:19;16.10;79.90
15937;DHT22;9163;48.818;8.976;2023-04-09T12:15:49;16.70;82.30
15937;DHT22;9163;48.818;8.976;2023-04-09T12:18:16;17.40;82.10
15937;DHT22;9163;48.818;8.976;2023-04-09T12:20:46;17.60;87.80
15937;DHT22;9163;48.818;8.976;2023-04-09T12:23:15;17.80;91.70
15937;DHT22;9163;48.818;8.976;2023-04-09T12:25:43;17.90;92.90
15937;DHT22;9163;48.818;8.976;2023-04-09T12:28:13;17.50;94.90
15937;DHT22;9163;48.818;8.976;2023-04-09T12:30:43;17.20;95.30
15937;DHT22;9163;48.818;8.976;2023-04-09T12:33:12;16.80;96.10
15937;DHT22;9163;48.818;8.976;2023-04-09T12:35:39;16.20;96.00
15937;DHT22;9163;48.818;8.976;2023-04-09T12:38:06;15.90;95.50
15937;DHT22;9163;48.818;8.976;2023-04-09T12:40:34;15.80;98.60
15937;DHT22;9163;48.818;8.976;2023-04-09T12:43:02;16.40;97.00
15937;DHT22;9163;48.818;8.976;2023-04-09T12:45:30;16.00;96.90
15937;DHT22;9163;48.818;8.976;2023-04-09T12:47:57;15.50;97.80
15937;DHT22;9163;48.818;8.976;2023-04-09T12:50:26;15.70;98.00
15937;DHT22;9163;48.818;8.976;2023-04-09T12:52:53;15.50;98.50
15937;DHT22;9163;48.818;8.976;2023-04-09T12:55:20;15.70;99.30
15937;DHT22;9163;48.818;8.976;2023-04-09T12:57:49;16.00;99.90
15937;DHT22;9163;48.818;8.976;2023-04-09T13:00:16;16.40;98.60
15937;DHT22;9163;48.818;8.976;2023-04-09T13:02:43;16.40;98.40
15937;DHT22;9163;48.818;8.976;2023-04-09T13:05:11;16.00;98.60
15937;DHT22;9163;48.818;8.976;2023-04-09T13:07:39;15.70;98.40
15937;DHT22;9163;48.818;8.976;2023-04-09T13:10:08;16.10;98.80
15937;DHT22;9163;48.818;8.976;2023-04-09T13:12:36;15.70;97.90
15937;DHT22;9163;48.818;8.976;2023-04-09T13:15:04;16.40;99.90
15937;DHT22;9163;48.818;8.976;2023-04-09T13:17:31;16.80;97.70
15937;DHT22;9163;48.818;8.976;2023-04-09T13:19:58;15.50;96.90
15937;DHT22;9163;48.818;8.976;2023-04-09T13:22:26;15.00;98.30
15937;DHT22;9163;48.818;8.976;2023-04-09T13:24:54;14.80;97.70
15937;DHT22;9163;48.818;8.976;2023-04-09T13:27:22;14.50;98.30
15937;DHT22;9163;48.818;8.976;2023-04-09T13:29:49;14.50;98.20
15937;DHT22;9163;48.818;8.976;2023-04-09T13:32:16;14.60;99.20
15937;DHT22;9163;48.818;8.976;2023-04-09T13:34:45;14.60;98.10
15937;DHT22;9163;48.818;8.976;2023-04-09T13:37:13;14.40;99.70
15937;DHT22;9163;48.818;8.976;2023-04-09T13:39:40;14.10;99.90
15937;DHT22;9163;48.818;8.976;2023-04-09T13:42:09;14.00;98.90
15937;DHT22;9163;48.818;8.976;2023-04-09T13:44:36;13.70;99.50
15937;DHT22;9163;48.818;8.976;2023-04-09T13:47:05;14.30;99.90
15937;DHT22;9163;48.818;8.976;2023-04-09T13:49:32;14.80;99.60
15937;DHT22;9163;48.818;8.976;2023-04-09T13:52:00;14.50;98.80
15937;DHT22;9163;48.818;8.976;2023-04-09T13:54:29;14.20;99.30
15937;DHT22;9163;48.818;8.976;2023-04-09T13:56:56;14.20;99.50
15937;DHT22;9163;48.818;8.976;2023-04-09T13:59:25;14.00;99.50
15937;DHT22;9163;48.818;8.976;2023-04-09T14:01:52;14.40;99.90
15937;DHT22;9163;48.818;8.976;2023-04-09T14:04:19;14.50;99.10
15937;DHT22;9163;48.818;8.976;2023-04-09T14:06:46;14.60;98.80
15937;DHT22;9163;48.818;8.976;2023-04-09T14:09:14;14.50;98.80
15937;DHT22;9163;48.818;8.976;2023-04-09T14:11:41;14.60;98.70
15937;DHT22;9163;48.818;8.976;2023-04-09T14:14:08;14.70;97.70
15937;DHT22;9163;48.818;8.976;2023-04-09T14:16:37;14.50;99.90
15937;DHT22;9163;48.818;8.976;2023-04-09T14:19:04;15.00;98.90
15937;DHT22;9163;48.818;8.976;2023-04-09T14:21:32;15.00;99.30
15937;DHT22;9163;48.818;8.976;2023-04-09T14:24:00;14.60;98.70
15937;DHT22;9163;48.818;8.976;2023-04-09T14:26:27;14.00;98.70
15937;DHT22;9163;48.818;8.976;2023-04-09T14:28:54;14.10;98.50
15937;DHT22;9163;48.818;8.976;2023-04-09T14:31:21;14.30;97.60
15937;DHT22;9163;48.818;8.976;2023-04-09T14:33:50;14.40;97.80
15937;DHT22;9163;48.818;8.976;2023-04-09T14:36:17;14.50;98.00
15937;DHT22;9163;48.818;8.976;2023-04-09T14:38:44;14.60;97.60
15937;DHT22;9163;48.818;8.976;2023-04-09T14:41:13;14.70;98.20
15937;DHT22;9163;48.818;8.976;2023-04-09T14:43:40;14.60;98.20
15937;DHT22;9163;48.818;8.976;2023-04-09T14:46:07;14.60;97.90
15937;DHT22;9163;48.818;8.976;2023-04-09T14:48:36;14.80;96.40
15937;DHT22;9163;48.818;8.976;2023-04-09T14:51:08;14.70;96.60
15937;DHT22;9163;48.818;8.976;2023-04-09T14:53:35;14.80;97.50
15937;DHT22;9163;48.818;8.976;2023-04-09T14:56:03;14.90;96.20
15937;DHT22;9163;48.818;8.976;2023-04-09T14:58:30;15.00;97.20
15937;DHT22;9163;48.818;8.976;2023-04-09T15:00:57;15.30;96.90
15937;DHT22;9163;48.818;8.976;2023-04-09T15:03:24;15.30;96.30
15937;DHT22;9163;48.818;8.976;2023-04-09T15:05:52;15.20;95.50
15937;DHT22;9163;48.818;8.976;2023-04-09T15:08:20;15.60;96.40
15937;DHT22;9163;48.818;8.976;2023-04-09T15:10:48;15.40;95.90
15937;DHT22;9163;48.818;8.976;2023-04-09T15:13:15;15.20;96.90
15937;DHT22;9163;48.818;8.976;2023-04-09T15:15:42;15.10;96.50
15937;DHT22;9163;48.818;8.976;2023-04-09T15:18:10;15.00;95.80
15937;DHT22;9163;48.818;8.976;2023-04-09T15:20:37;15.00;95.90
15937;DHT22;9163;48.818;8.976;2023-04-09T15:23:05;15.20;96.10
15937;DHT22;9163;48.818;8.976;2023-04-09T15:25:33;14.90;95.50
15937;DHT22;9163;48.818;8.976;2023-04-09T15:28:01;14.70;96.60
15937;DHT22;9163;48.818;8.976;2023-04-09T15:30:28;14.80;97.90
15937;DHT22;9163;48.818;8.976;2023-04-09T15:32:56;14.70;96.90
15937;DHT22;9163;48.818;8.976;2023-04-09T15:35:23;14.50;96.80
15937;DHT22;9163;48.818;8.976;2023-04-09T15:37:54;14.60;96.70
15937;DHT22;9163;48.818;8.976;2023-04-09T15:40:22;14.20;96.90
15937;DHT22;9163;48.818;8.976;2023-04-09T15:42:50;14.00;97.60
15937;DHT22;9163;48.818;8.976;2023-04-09T15:45:18;14.10;99.00
15937;DHT22;9163;48.818;8.976;2023-04-09T15:47:45;14.40;99.50
15937;DHT22;9163;48.818;8.976;2023-04-09T15:50:13;14.30;98.40
15937;DHT22;9163;48.818;8.976;2023-04-09T15:52:40;14.10;97.80
15937;DHT22;9163;48.818;8.976;2023-04-09T15:55:08;13.80;97.80
15937;DHT22;9163;48.818;8.976;2023-04-09T15:57:35;13.70;97.80
15937;DHT22;9163;48.818;8.976;2023-04-09T16:00:06;13.80;97.60
15937;DHT22;9163;48.818;8.976;2023-04-09T16:02:35;13.70;97.40
15937;DHT22;9163;48.818;8.976;2023-04-09T16:05:04;13.50;97.60